createdAt,value
2019-03-19T00:01:02.770Z,4.80
2019-03-19T00:03:33.569Z,4.80
2019-03-19T00:06:03.942Z,4.80
2019-03-19T00:08:34.541Z,4.70
2019-03-19T00:11:04.811Z,4.70
2019-03-19T00:13:35.051Z,4.70
2019-03-19T00:16:05.339Z,4.70
2019-03-19T00:18:35.582Z,4.60
2019-03-19T00:21:05.852Z,4.60
2019-03-19T00:23:36.135Z,4.60
2019-03-19T00:26:06.411Z,4.50
2019-03-19T00:28:38.993Z,4.50
2019-03-19T00:31:08.513Z,4.50
2019-03-19T00:33:38.684Z,4.40
2019-03-19T00:36:09.062Z,4.30
2019-03-19T00:38:39.332Z,4.30
2019-03-19T00:41:09.606Z,4.20
2019-03-19T00:43:39.860Z,4.20
2019-03-19T00:46:10.196Z,4.30
2019-03-19T00:48:40.451Z,4.30
2019-03-19T00:51:10.725Z,4.30
2019-03-19T00:53:40.950Z,4.40
2019-03-19T00:56:12.413Z,4.30
2019-03-19T00:58:42.642Z,4.30
2019-03-19T01:01:13.224Z,4.30
2019-03-19T01:03:43.512Z,4.30
2019-03-19T01:06:13.771Z,4.40
2019-03-19T01:08:44.129Z,4.30
2019-03-19T01:11:15.097Z,4.30
2019-03-19T01:13:45.343Z,4.30
2019-03-19T01:16:15.710Z,4.30
2019-03-19T01:18:46.012Z,4.30
2019-03-19T01:21:16.265Z,4.30
2019-03-19T01:23:46.550Z,4.30
2019-03-19T01:26:16.852Z,4.30
2019-03-19T01:28:47.310Z,4.20
2019-03-19T01:31:17.602Z,4.20
2019-03-19T01:33:47.888Z,4.20
2019-03-19T01:36:18.185Z,4.30
2019-03-19T01:38:48.466Z,4.20
2019-03-19T01:41:18.761Z,4.20
2019-03-19T01:43:49.158Z,4.10
2019-03-19T01:46:19.968Z,4.10
2019-03-19T01:48:50.285Z,4.10
2019-03-19T01:51:20.651Z,4.10
2019-03-19T01:53:50.886Z,4.00
2019-03-19T01:56:21.170Z,4.10
2019-03-19T01:58:51.408Z,4.10
2019-03-19T02:01:21.872Z,4.00
2019-03-19T02:03:52.222Z,4.00
2019-03-19T02:06:22.654Z,4.00
2019-03-19T02:08:52.892Z,4.00
2019-03-19T02:11:23.151Z,4.00
2019-03-19T02:13:53.407Z,4.00
2019-03-19T02:16:23.675Z,3.90
2019-03-19T02:18:54.346Z,4.00
2019-03-19T02:21:24.644Z,4.00
2019-03-19T02:23:55.290Z,4.00
2019-03-19T02:26:25.610Z,4.00
2019-03-19T02:28:55.934Z,3.90
2019-03-19T02:31:26.690Z,3.80
2019-03-19T02:33:56.919Z,3.90
2019-03-19T02:36:27.522Z,4.00
2019-03-19T02:38:57.799Z,3.90
2019-03-19T02:41:28.131Z,3.90
2019-03-19T02:43:58.411Z,4.00
2019-03-19T02:46:29.912Z,4.00
2019-03-19T02:49:01.326Z,4.00
2019-03-19T02:51:31.885Z,4.10
2019-03-19T02:54:02.110Z,4.10
2019-03-19T02:56:33.687Z,4.20
2019-03-19T02:59:04.176Z,4.20
2019-03-19T03:01:34.531Z,4.20
2019-03-19T03:04:04.803Z,4.20
2019-03-19T03:06:35.196Z,4.20
2019-03-19T03:09:07.231Z,4.20
2019-03-19T03:11:37.552Z,4.30
2019-03-19T03:14:07.801Z,4.20
2019-03-19T03:16:38.083Z,4.20
2019-03-19T03:19:08.369Z,4.20
2019-03-19T03:21:38.583Z,4.20
2019-03-19T03:24:08.867Z,4.00
2019-03-19T03:26:47.491Z,4.00
2019-03-19T03:29:11.349Z,3.90
2019-03-19T03:31:41.656Z,3.80
2019-03-19T03:34:12.102Z,3.70
2019-03-19T03:36:42.331Z,3.70
2019-03-19T03:39:12.582Z,3.60
2019-03-19T03:41:43.014Z,3.60
2019-03-19T03:44:13.242Z,3.60
2019-03-19T03:46:43.546Z,3.60
2019-03-19T03:49:13.830Z,3.50
2019-03-19T03:51:44.113Z,3.50
2019-03-19T03:54:14.413Z,3.40
2019-03-19T03:56:44.674Z,3.40
2019-03-19T03:59:14.941Z,3.40
2019-03-19T04:01:45.276Z,3.30
2019-03-19T04:04:15.600Z,3.30
2019-03-19T04:06:45.838Z,3.30
2019-03-19T04:09:16.396Z,3.30
2019-03-19T04:11:46.647Z,3.30
2019-03-19T04:14:17.174Z,3.20
2019-03-19T04:16:47.420Z,3.20
2019-03-19T04:19:18.832Z,3.20
2019-03-19T04:21:49.151Z,3.30
2019-03-19T04:24:19.430Z,3.30
2019-03-19T04:26:49.667Z,3.30
2019-03-19T04:29:19.887Z,3.30
2019-03-19T04:31:50.145Z,3.30
2019-03-19T04:34:20.472Z,3.30
2019-03-19T04:36:50.692Z,3.30
2019-03-19T04:39:20.953Z,3.30
2019-03-19T04:41:51.132Z,3.30
2019-03-19T04:44:21.415Z,3.30
2019-03-19T04:46:51.649Z,3.40
2019-03-19T04:49:21.916Z,3.50
2019-03-19T04:51:52.098Z,3.50
2019-03-19T04:54:22.386Z,3.50
2019-03-19T04:56:52.641Z,3.50
2019-03-19T04:59:22.913Z,3.60
2019-03-19T05:01:53.194Z,3.60
2019-03-19T05:04:23.492Z,3.50
2019-03-19T05:06:53.796Z,3.50
2019-03-19T05:09:24.087Z,3.50
2019-03-19T05:11:54.426Z,3.40
2019-03-19T05:14:24.691Z,3.30
2019-03-19T05:16:56.064Z,3.30
2019-03-19T05:19:26.332Z,3.30
2019-03-19T05:21:56.559Z,3.40
2019-03-19T05:24:26.844Z,3.50
2019-03-19T05:26:57.060Z,3.60
2019-03-19T05:29:27.322Z,3.40
2019-03-19T05:31:57.606Z,3.40
2019-03-19T05:34:27.914Z,3.40
2019-03-19T05:36:58.185Z,3.40
2019-03-19T05:39:28.442Z,3.30
2019-03-19T05:41:58.982Z,3.40
2019-03-19T05:44:29.302Z,3.50
2019-03-19T05:46:59.558Z,3.50
2019-03-19T05:49:29.816Z,3.60
2019-03-19T05:52:00.114Z,3.70
2019-03-19T05:54:30.489Z,3.70
2019-03-19T05:57:00.788Z,3.70
2019-03-19T05:59:33.549Z,3.80
2019-03-19T06:02:03.786Z,3.90
2019-03-19T06:04:34.127Z,4.00
2019-03-19T06:07:04.513Z,3.90
2019-03-19T06:09:34.776Z,3.90
2019-03-19T06:12:05.264Z,3.90
2019-03-19T06:14:35.814Z,4.00
2019-03-19T06:17:06.090Z,4.10
2019-03-19T06:19:36.778Z,4.10
2019-03-19T06:22:07.051Z,4.20
2019-03-19T06:24:37.306Z,4.30
2019-03-19T06:27:08.148Z,4.40
2019-03-19T06:29:38.378Z,4.50
2019-03-19T06:32:08.634Z,4.70
2019-03-19T06:34:38.923Z,4.80
2019-03-19T06:37:09.279Z,4.90
2019-03-19T06:39:39.562Z,4.90
2019-03-19T06:42:10.066Z,4.90
2019-03-19T06:44:40.483Z,4.80
2019-03-19T06:47:11.016Z,4.70
2019-03-19T06:49:41.322Z,4.60
2019-03-19T06:52:11.581Z,4.80
2019-03-19T06:54:41.846Z,4.90
2019-03-19T06:57:12.129Z,5.20
2019-03-19T06:59:42.375Z,5.10
2019-03-19T07:02:12.643Z,5.30
2019-03-19T07:04:42.996Z,5.20
2019-03-19T07:07:13.287Z,5.30
2019-03-19T07:09:43.557Z,5.30
2019-03-19T07:12:13.872Z,5.30
2019-03-19T07:14:44.173Z,5.30
2019-03-19T07:17:14.455Z,5.20
2019-03-19T07:19:45.253Z,5.20
2019-03-19T07:22:15.515Z,5.20
2019-03-19T07:24:48.036Z,5.20
2019-03-19T07:27:17.821Z,5.10
2019-03-19T07:29:48.616Z,5.00
2019-03-19T07:32:18.879Z,5.10
2019-03-19T07:34:49.153Z,4.90
2019-03-19T07:37:19.523Z,4.90
2019-03-19T07:39:49.974Z,4.90
2019-03-19T07:42:20.207Z,5.00
2019-03-19T07:44:51.245Z,5.20
2019-03-19T07:47:21.523Z,5.20
2019-03-19T07:49:51.803Z,5.30
2019-03-19T07:52:22.046Z,5.50
2019-03-19T07:54:52.314Z,5.60
2019-03-19T07:57:22.587Z,5.50
2019-03-19T07:59:52.903Z,5.70
2019-03-19T08:02:23.153Z,5.80
2019-03-19T08:04:53.473Z,5.80
2019-03-19T08:07:23.775Z,6.00
2019-03-19T08:09:54.118Z,6.10
2019-03-19T08:12:24.350Z,6.20
2019-03-19T08:14:54.672Z,6.30
2019-03-19T08:17:24.955Z,6.20
2019-03-19T08:19:57.195Z,6.30
2019-03-19T08:22:27.259Z,6.20
2019-03-19T08:24:57.592Z,6.40
2019-03-19T08:27:27.866Z,6.40
2019-03-19T08:29:58.584Z,6.40
2019-03-19T08:32:28.806Z,6.40
2019-03-19T08:35:00.358Z,6.30
2019-03-19T08:37:30.633Z,6.30
2019-03-19T08:40:00.955Z,6.20
2019-03-19T08:42:31.208Z,6.20
2019-03-19T08:45:01.359Z,6.30
2019-03-19T08:47:31.725Z,6.50
2019-03-19T08:50:01.956Z,6.20
2019-03-19T08:52:32.246Z,6.20
2019-03-19T08:55:03.788Z,6.70
2019-03-19T08:57:34.342Z,6.60
2019-03-19T09:00:05.885Z,6.60
2019-03-19T09:02:37.598Z,6.80
2019-03-19T09:05:08.946Z,7.10
2019-03-19T09:07:39.226Z,7.10
2019-03-19T09:10:10.463Z,7.40
2019-03-19T09:12:41.216Z,7.10
2019-03-19T09:15:12.478Z,7.40
2019-03-19T09:17:43.072Z,7.60
2019-03-19T09:20:13.722Z,7.00
2019-03-19T09:22:44.188Z,7.00
2019-03-19T09:25:14.453Z,6.80
2019-03-19T09:27:44.827Z,6.80
2019-03-19T09:30:16.144Z,7.10
2019-03-19T09:32:46.575Z,7.00
2019-03-19T09:35:16.912Z,7.10
2019-03-19T09:37:57.746Z,7.10
2019-03-19T09:40:19.322Z,7.40
2019-03-19T09:42:49.587Z,7.60
2019-03-19T09:45:20.960Z,7.50
2019-03-19T09:47:51.244Z,7.40
2019-03-19T09:50:21.490Z,7.60
2019-03-19T09:52:51.877Z,7.30
2019-03-19T09:55:22.118Z,6.90
2019-03-19T09:57:52.376Z,7.20
2019-03-19T10:00:23.723Z,7.50
2019-03-19T10:02:54.011Z,7.50
2019-03-19T10:05:24.308Z,7.60
2019-03-19T10:07:55.698Z,7.60
2019-03-19T10:10:26.107Z,7.90
2019-03-19T10:12:56.378Z,7.90
2019-03-19T10:15:26.704Z,8.20
2019-03-19T10:17:56.934Z,8.30
2019-03-19T10:20:27.332Z,8.40
2019-03-19T10:22:57.674Z,8.40
2019-03-19T10:25:27.991Z,8.70
2019-03-19T10:27:58.354Z,8.80
2019-03-19T10:30:28.711Z,8.40
2019-03-19T10:32:59.065Z,8.40
2019-03-19T10:35:29.337Z,8.00
2019-03-19T10:38:00.806Z,8.10
2019-03-19T10:40:31.067Z,8.20
2019-03-19T10:43:01.353Z,7.60
2019-03-19T10:45:31.854Z,7.30
2019-03-19T10:48:02.091Z,7.30
2019-03-19T10:50:32.634Z,7.50
2019-03-19T10:53:03.221Z,7.40
2019-03-19T10:55:33.844Z,7.70
2019-03-19T10:58:10.975Z,7.70
2019-03-19T11:00:36.283Z,8.00
2019-03-19T11:03:06.691Z,7.90
2019-03-19T11:05:36.982Z,7.70
2019-03-19T11:08:07.329Z,7.80
2019-03-19T11:10:37.632Z,8.10
2019-03-19T11:13:08.111Z,8.30
2019-03-19T11:15:38.389Z,8.30
2019-03-19T11:18:08.609Z,8.00
2019-03-19T11:20:38.922Z,8.10
2019-03-19T11:23:09.252Z,7.80
2019-03-19T11:25:39.481Z,7.50
2019-03-19T11:28:09.886Z,7.60
2019-03-19T11:30:40.141Z,7.60
2019-03-19T11:33:10.437Z,7.40
2019-03-19T11:35:41.076Z,7.50
2019-03-19T11:38:11.469Z,7.60
2019-03-19T11:40:41.775Z,7.70
2019-03-19T11:43:12.358Z,8.10
2019-03-19T11:45:42.969Z,8.30
2019-03-19T11:48:13.387Z,8.30
2019-03-19T11:50:43.697Z,8.50
2019-03-19T11:53:14.001Z,8.40
2019-03-19T11:55:44.171Z,8.50
2019-03-19T11:58:14.478Z,8.50
2019-03-19T12:00:47.270Z,8.30
2019-03-19T12:03:17.562Z,8.10
2019-03-19T12:05:47.907Z,8.40
2019-03-19T12:08:18.567Z,8.40
2019-03-19T12:10:48.791Z,8.20
2019-03-19T12:13:19.025Z,8.00
2019-03-19T12:15:49.571Z,7.80
2019-03-19T12:18:19.903Z,7.80
2019-03-19T12:20:50.158Z,8.00
2019-03-19T12:23:20.488Z,8.20
2019-03-19T12:25:50.766Z,8.20
2019-03-19T12:28:21.170Z,8.20
2019-03-19T12:30:51.444Z,8.30
2019-03-19T12:33:22.026Z,8.30
2019-03-19T12:35:52.279Z,8.20
2019-03-19T12:38:22.550Z,7.80
2019-03-19T12:40:52.836Z,7.90
2019-03-19T12:43:23.105Z,7.30
2019-03-19T12:45:53.335Z,7.30
2019-03-19T12:48:23.759Z,7.40
2019-03-19T12:50:54.030Z,7.50
2019-03-19T12:53:24.262Z,7.70
2019-03-19T12:55:54.526Z,7.80
2019-03-19T12:58:24.768Z,7.70
2019-03-19T13:00:55.043Z,7.90
2019-03-19T13:03:25.334Z,8.10
2019-03-19T13:05:55.727Z,7.80
2019-03-19T13:08:25.990Z,7.60
2019-03-19T13:10:56.264Z,7.50
2019-03-19T13:13:26.528Z,7.50
2019-03-19T13:15:56.884Z,7.50
2019-03-19T13:18:27.539Z,7.70
2019-03-19T13:20:57.773Z,7.80
2019-03-19T13:23:28.290Z,7.80
2019-03-19T13:25:58.560Z,7.90
2019-03-19T13:28:28.862Z,7.90
2019-03-19T13:30:59.179Z,7.90
2019-03-19T13:33:29.478Z,7.90
2019-03-19T13:35:59.736Z,7.80
2019-03-19T13:38:30.050Z,7.60
2019-03-19T13:41:00.372Z,7.60
2019-03-19T13:43:30.739Z,7.60
2019-03-19T13:46:01.193Z,7.60
2019-03-19T13:48:31.560Z,7.80
2019-03-19T13:51:01.970Z,7.80
2019-03-19T13:53:32.213Z,7.80
2019-03-19T13:56:02.542Z,7.70
2019-03-19T13:58:33.247Z,7.70
2019-03-19T14:01:03.500Z,7.70
2019-03-19T14:03:33.832Z,7.50
2019-03-19T14:06:04.117Z,7.40
2019-03-19T14:08:34.445Z,7.80
2019-03-19T14:11:04.714Z,7.90
2019-03-19T14:13:34.965Z,7.80
2019-03-19T14:16:05.271Z,7.70
2019-03-19T14:18:35.516Z,7.70
2019-03-19T14:21:05.780Z,7.70
2019-03-19T14:23:36.109Z,7.70
2019-03-19T14:26:06.374Z,7.60
2019-03-19T14:28:36.608Z,7.80
2019-03-19T14:31:08.927Z,8.00
2019-03-19T14:33:38.941Z,8.10
2019-03-19T14:36:10.369Z,7.90
2019-03-19T14:38:47.016Z,7.90
2019-03-19T14:41:14.075Z,7.90
2019-03-19T14:43:44.347Z,7.70
2019-03-19T14:46:14.598Z,7.90
2019-03-19T14:48:45.058Z,8.10
2019-03-19T14:51:16.663Z,8.10
2019-03-19T14:53:47.079Z,8.20
2019-03-19T14:56:17.332Z,8.00
2019-03-19T14:58:48.627Z,7.70
2019-03-19T15:01:19.817Z,7.70
2019-03-19T15:03:51.280Z,7.80
2019-03-19T15:06:21.602Z,7.80
2019-03-19T15:08:51.941Z,7.80
2019-03-19T15:11:22.223Z,7.70
2019-03-19T15:13:52.496Z,7.70
2019-03-19T15:16:22.797Z,7.60
2019-03-19T15:18:53.069Z,7.50
2019-03-19T15:21:23.310Z,7.60
2019-03-19T15:23:53.671Z,7.70
2019-03-19T15:26:24.027Z,7.70
2019-03-19T15:28:54.624Z,7.60
2019-03-19T15:31:29.704Z,7.50
2019-03-19T15:33:56.927Z,7.40
2019-03-19T15:36:27.562Z,7.30
2019-03-19T15:38:57.926Z,7.30
2019-03-19T15:41:29.290Z,7.30
2019-03-19T15:43:59.689Z,7.30
2019-03-19T15:46:30.544Z,7.40
2019-03-19T15:49:00.923Z,7.40
2019-03-19T15:51:31.243Z,7.40
2019-03-19T15:54:01.561Z,7.40
2019-03-19T15:56:31.829Z,7.40
2019-03-19T15:59:02.632Z,7.30
2019-03-19T16:01:40.052Z,7.40
2019-03-19T16:04:05.145Z,7.30
2019-03-19T16:06:35.824Z,7.20
2019-03-19T16:09:09.091Z,7.20
2019-03-19T16:11:39.617Z,7.10
2019-03-19T16:14:10.146Z,7.10
2019-03-19T16:16:40.406Z,7.00
2019-03-19T16:19:11.175Z,7.00
2019-03-19T16:21:41.419Z,6.90
2019-03-19T16:24:11.667Z,6.90
2019-03-19T16:26:42.214Z,6.90
2019-03-19T16:29:12.659Z,6.80
2019-03-19T16:31:50.575Z,6.80
2019-03-19T16:34:14.956Z,6.90
2019-03-19T16:36:45.239Z,6.90
2019-03-19T16:39:15.566Z,6.80
2019-03-19T16:41:45.838Z,6.80
2019-03-19T16:44:16.161Z,6.70
2019-03-19T16:46:46.396Z,6.70
2019-03-19T16:49:16.706Z,6.70
2019-03-19T16:51:47.308Z,6.70
2019-03-19T16:54:17.970Z,6.70
2019-03-19T16:56:48.221Z,6.60
2019-03-19T16:59:18.594Z,6.60
2019-03-19T17:01:48.860Z,6.60
2019-03-19T17:04:20.081Z,6.60
2019-03-19T17:06:50.646Z,6.50
2019-03-19T17:09:21.472Z,6.50
2019-03-19T17:11:51.746Z,6.50
2019-03-19T17:14:22.256Z,6.60
2019-03-19T17:16:52.626Z,6.60
2019-03-19T17:19:22.906Z,6.60
2019-03-19T17:21:53.208Z,6.60
2019-03-19T17:24:23.468Z,6.60
2019-03-19T17:26:54.232Z,6.50
2019-03-19T17:29:24.840Z,6.50
2019-03-19T17:31:55.108Z,6.50
2019-03-19T17:34:25.354Z,6.50
2019-03-19T17:36:55.760Z,6.50
2019-03-19T17:39:26.088Z,6.40
2019-03-19T17:41:56.482Z,6.30
2019-03-19T17:44:26.710Z,6.30
2019-03-19T17:46:56.954Z,6.20
2019-03-19T17:49:27.258Z,6.20
2019-03-19T17:51:57.526Z,6.10
2019-03-19T17:54:27.955Z,6.00
2019-03-19T17:56:58.335Z,6.00
2019-03-19T17:59:28.648Z,5.90
2019-03-19T18:02:00.301Z,5.90
2019-03-19T18:04:30.930Z,5.90
2019-03-19T18:07:02.363Z,5.80
2019-03-19T18:09:32.613Z,5.70
2019-03-19T18:12:03.447Z,5.70
2019-03-19T18:14:33.688Z,5.70
2019-03-19T18:17:03.965Z,5.70
2019-03-19T18:19:34.262Z,5.60
2019-03-19T18:22:05.801Z,5.60
2019-03-19T18:24:36.204Z,5.50
2019-03-19T18:27:06.487Z,5.50
2019-03-19T18:29:36.765Z,5.50
2019-03-19T18:32:08.394Z,5.40
2019-03-19T18:34:38.679Z,5.40
2019-03-19T18:37:08.983Z,5.40
2019-03-19T18:39:39.314Z,5.30
2019-03-19T18:42:09.748Z,5.40
2019-03-19T18:44:39.991Z,5.30
2019-03-19T18:47:12.166Z,5.30
2019-03-19T18:49:46.316Z,5.30
2019-03-19T18:52:16.698Z,5.30
2019-03-19T18:54:47.143Z,5.20
2019-03-19T18:57:17.782Z,5.20
2019-03-19T18:59:47.809Z,5.10
2019-03-19T19:02:18.098Z,5.10
2019-03-19T19:04:48.351Z,5.10
2019-03-19T19:07:18.850Z,5.10
2019-03-19T19:09:50.197Z,5.10
2019-03-19T19:12:20.485Z,5.00
2019-03-19T19:14:50.745Z,5.10
2019-03-19T19:17:21.502Z,5.00
2019-03-19T19:19:52.090Z,5.00
2019-03-19T19:22:22.587Z,5.00
2019-03-19T19:24:52.902Z,5.00
2019-03-19T19:27:23.207Z,4.90
2019-03-19T19:30:00.923Z,4.90
2019-03-19T19:32:31.174Z,5.00
2019-03-19T19:35:01.648Z,5.00
2019-03-19T19:37:34.535Z,5.00
2019-03-19T19:40:05.523Z,5.00
2019-03-19T19:42:35.841Z,5.10
2019-03-19T19:45:06.993Z,5.20
2019-03-19T19:47:37.684Z,5.30
2019-03-19T19:50:10.051Z,5.30
2019-03-19T19:52:41.443Z,5.20
2019-03-19T19:55:12.137Z,5.30
2019-03-19T19:57:42.489Z,5.20
2019-03-19T20:00:15.956Z,5.20
2019-03-19T20:02:46.438Z,5.20
2019-03-19T20:05:17.185Z,5.20
2019-03-19T20:07:47.626Z,5.20
2019-03-19T20:10:18.306Z,5.20
2019-03-19T20:12:49.787Z,5.30
2019-03-19T20:15:20.213Z,5.30
2019-03-19T20:17:50.488Z,5.30
2019-03-19T20:20:20.772Z,5.30
2019-03-19T20:22:52.074Z,5.30
2019-03-19T20:25:22.602Z,5.20
2019-03-19T20:27:53.241Z,5.20
2019-03-19T20:30:23.762Z,5.20
2019-03-19T20:32:54.222Z,5.20
2019-03-19T20:35:24.482Z,5.20
2019-03-19T20:37:54.780Z,5.20
2019-03-19T20:40:25.164Z,5.20
2019-03-19T20:42:57.091Z,5.20
2019-03-19T20:45:27.483Z,5.20
2019-03-19T20:47:57.787Z,5.20
2019-03-19T20:50:28.593Z,5.30
2019-03-19T20:52:59.055Z,5.40
2019-03-19T20:55:29.707Z,5.30
2019-03-19T20:57:59.995Z,5.30
2019-03-19T21:00:30.335Z,5.20
2019-03-19T21:03:00.570Z,5.20
2019-03-19T21:05:30.888Z,5.20
2019-03-19T21:08:01.150Z,5.10
2019-03-19T21:10:31.473Z,5.00
2019-03-19T21:13:01.706Z,5.00
2019-03-19T21:15:32.176Z,5.00
2019-03-19T21:18:04.527Z,4.90
2019-03-19T21:20:34.747Z,4.90
2019-03-19T21:23:05.467Z,4.80
2019-03-19T21:25:35.802Z,4.80
2019-03-19T21:28:14.008Z,4.80
2019-03-19T21:30:38.493Z,4.70
2019-03-19T21:33:09.118Z,4.60
2019-03-19T21:35:39.454Z,4.60
2019-03-19T21:38:09.819Z,4.60
2019-03-19T21:40:41.934Z,4.60
2019-03-19T21:43:13.366Z,4.50
2019-03-19T21:45:44.093Z,4.50
2019-03-19T21:48:14.356Z,4.40
2019-03-19T21:50:44.980Z,4.40
2019-03-19T21:53:15.231Z,4.40
2019-03-19T21:55:45.910Z,4.30
2019-03-19T21:58:16.232Z,4.30
2019-03-19T22:00:46.594Z,4.30
2019-03-19T22:03:17.046Z,4.30
2019-03-19T22:05:47.325Z,4.20
2019-03-19T22:08:17.861Z,4.20
2019-03-19T22:10:48.392Z,4.20
2019-03-19T22:13:18.661Z,4.20
2019-03-19T22:15:49.018Z,4.20
2019-03-19T22:18:19.309Z,4.10
2019-03-19T22:20:49.539Z,4.10
2019-03-19T22:23:19.811Z,4.00
2019-03-19T22:25:50.120Z,4.00
2019-03-19T22:28:21.999Z,4.00
2019-03-19T22:30:52.269Z,3.90
2019-03-19T22:33:23.344Z,3.90
2019-03-19T22:35:53.709Z,3.90
2019-03-19T22:38:23.961Z,3.80
2019-03-19T22:40:54.329Z,3.80
2019-03-19T22:43:25.945Z,3.80
2019-03-19T22:45:56.489Z,3.70
2019-03-19T22:48:26.807Z,3.70
2019-03-19T22:50:57.071Z,3.70
2019-03-19T22:53:27.299Z,3.70
2019-03-19T22:55:57.621Z,3.70
2019-03-19T22:58:27.894Z,3.60
2019-03-19T23:00:58.220Z,3.70
2019-03-19T23:03:28.818Z,3.70
2019-03-19T23:05:59.148Z,3.60
2019-03-19T23:08:29.871Z,3.60
2019-03-19T23:11:00.451Z,3.60
2019-03-19T23:13:30.811Z,3.60
2019-03-19T23:16:01.171Z,3.60
2019-03-19T23:18:31.522Z,3.60
2019-03-19T23:21:03.072Z,3.60
2019-03-19T23:23:33.386Z,3.60
2019-03-19T23:26:03.763Z,3.50
2019-03-19T23:28:34.119Z,3.50
2019-03-19T23:31:04.947Z,3.50
2019-03-19T23:33:35.453Z,3.50
2019-03-19T23:36:06.260Z,3.50
2019-03-19T23:38:36.598Z,3.60
2019-03-19T23:41:08.304Z,3.50
2019-03-19T23:43:38.731Z,3.50
2019-03-19T23:46:09.054Z,3.50
2019-03-19T23:48:39.355Z,3.50
2019-03-19T23:51:09.708Z,3.50
2019-03-19T23:53:40.060Z,3.50
2019-03-19T23:56:10.408Z,3.50
2019-03-19T23:58:40.815Z,3.60
